createdAt,value
2022-11-25T00:01:25.505Z,6.07
2022-11-25T00:03:57.259Z,5.60
2022-11-25T00:06:35.231Z,4.78
2022-11-25T00:09:13.254Z,3.53
2022-11-25T00:11:42.609Z,7.32
2022-11-25T00:14:15.032Z,4.90
2022-11-25T00:16:46.722Z,4.35
2022-11-25T00:19:15.507Z,6.65
2022-11-25T00:21:42.979Z,4.80
2022-11-25T00:24:14.000Z,2.97
2022-11-25T00:26:41.272Z,6.40
2022-11-25T00:29:10.932Z,4.40
2022-11-25T00:31:40.290Z,4.47
2022-11-25T00:34:11.246Z,4.50
2022-11-25T00:36:38.830Z,4.90
2022-11-25T00:39:09.457Z,5.20
2022-11-25T00:41:55.345Z,5.03
2022-11-25T00:44:40.702Z,4.57
2022-11-25T00:47:20.707Z,4.95
2022-11-25T00:49:51.006Z,5.68
2022-11-25T00:52:21.079Z,5.80
2022-11-25T00:54:49.686Z,5.00
2022-11-25T00:57:19.263Z,4.05
2022-11-25T00:59:47.143Z,4.25
2022-11-25T01:02:16.301Z,5.35
2022-11-25T01:04:43.584Z,4.80
2022-11-25T01:07:11.013Z,4.82
2022-11-25T01:09:38.452Z,2.92
2022-11-25T01:12:06.061Z,4.53
2022-11-25T01:14:34.290Z,3.75
2022-11-25T01:17:01.864Z,4.28
2022-11-25T01:19:29.203Z,6.00
2022-11-25T01:21:56.415Z,4.35
2022-11-25T01:24:24.267Z,4.20
2022-11-25T01:26:53.601Z,5.25
2022-11-25T01:29:20.945Z,4.43
2022-11-25T01:31:48.749Z,4.72
2022-11-25T01:34:19.167Z,4.78
2022-11-25T01:36:46.884Z,4.10
2022-11-25T01:39:22.723Z,6.18
2022-11-25T01:41:51.779Z,4.28
2022-11-25T01:44:22.094Z,4.93
2022-11-25T01:46:55.168Z,4.50
2022-11-25T01:49:31.142Z,4.25
2022-11-25T01:52:09.068Z,5.50
2022-11-25T01:54:49.461Z,4.90
2022-11-25T01:57:26.449Z,6.53
2022-11-25T01:59:58.957Z,4.65
2022-11-25T02:02:26.685Z,3.97
2022-11-25T02:04:54.037Z,4.22
2022-11-25T02:07:33.572Z,6.57
2022-11-25T02:10:03.930Z,3.92
2022-11-25T02:12:31.907Z,3.50
2022-11-25T02:15:00.417Z,4.63
2022-11-25T02:17:27.745Z,5.10
2022-11-25T02:20:03.882Z,5.68
2022-11-25T02:22:55.706Z,3.88
2022-11-25T02:25:32.387Z,5.15
2022-11-25T02:28:05.172Z,4.07
2022-11-25T02:30:33.730Z,4.07
2022-11-25T02:33:01.660Z,2.97
2022-11-25T02:35:33.285Z,3.50
2022-11-25T02:38:35.161Z,3.53
2022-11-25T02:41:28.408Z,3.35
2022-11-25T02:43:55.961Z,3.15
2022-11-25T02:46:26.043Z,3.35
2022-11-25T02:49:11.021Z,3.10
2022-11-25T02:51:41.968Z,3.65
2022-11-25T02:54:09.594Z,3.17
2022-11-25T02:56:37.453Z,5.40
2022-11-25T02:59:04.974Z,4.55
2022-11-25T03:01:32.867Z,3.60
2022-11-25T03:04:00.835Z,3.85
2022-11-25T03:06:28.852Z,3.20
2022-11-25T03:08:56.985Z,3.92
2022-11-25T03:11:44.263Z,1.80
2022-11-25T03:14:11.731Z,4.10
2022-11-25T03:16:39.115Z,2.60
2022-11-25T03:19:06.558Z,3.15
2022-11-25T03:21:33.824Z,1.98
2022-11-25T03:24:01.038Z,2.75
2022-11-25T03:26:28.316Z,3.63
2022-11-25T03:28:55.739Z,3.50
2022-11-25T03:31:23.064Z,2.70
2022-11-25T03:33:50.315Z,2.83
2022-11-25T03:36:17.514Z,2.58
2022-11-25T03:38:44.769Z,2.40
2022-11-25T03:41:12.021Z,2.55
2022-11-25T03:43:39.281Z,2.70
2022-11-25T03:46:06.659Z,3.63
2022-11-25T03:48:33.887Z,3.67
2022-11-25T03:51:01.176Z,4.60
2022-11-25T03:53:28.397Z,2.25
2022-11-25T03:55:55.603Z,4.03
2022-11-25T03:58:22.826Z,3.53
2022-11-25T04:00:50.045Z,2.17
2022-11-25T04:03:17.374Z,3.53
2022-11-25T04:05:44.692Z,2.78
2022-11-25T04:08:13.585Z,3.15
2022-11-25T04:10:40.818Z,3.92
2022-11-25T04:13:08.055Z,4.10
2022-11-25T04:15:35.419Z,2.28
2022-11-25T04:18:02.691Z,2.90
2022-11-25T04:20:30.075Z,2.70
2022-11-25T04:22:57.366Z,3.40
2022-11-25T04:25:24.621Z,1.90
2022-11-25T04:27:52.400Z,3.42
2022-11-25T04:30:19.777Z,2.92
2022-11-25T04:32:47.073Z,1.83
2022-11-25T04:35:23.461Z,2.40
2022-11-25T04:37:50.720Z,3.83
2022-11-25T04:40:18.001Z,2.28
2022-11-25T04:42:45.217Z,1.27
2022-11-25T04:45:25.179Z,1.90
2022-11-25T04:47:52.494Z,3.25
2022-11-25T04:50:21.980Z,2.85
2022-11-25T04:52:49.775Z,2.10
2022-11-25T04:55:17.142Z,3.70
2022-11-25T04:57:44.498Z,3.17
2022-11-25T05:00:12.523Z,6.20
2022-11-25T05:02:39.788Z,2.22
2022-11-25T05:05:07.526Z,1.80
2022-11-25T05:07:34.934Z,2.10
2022-11-25T05:10:02.419Z,2.70
2022-11-25T05:12:30.366Z,3.13
2022-11-25T05:14:58.015Z,1.80
2022-11-25T05:17:28.886Z,2.80
2022-11-25T05:19:56.579Z,4.68
2022-11-25T05:22:26.826Z,2.10
2022-11-25T05:24:54.699Z,1.27
2022-11-25T05:27:22.639Z,2.33
2022-11-25T05:29:55.542Z,4.78
2022-11-25T05:32:23.540Z,5.07
2022-11-25T05:34:50.879Z,3.08
2022-11-25T05:37:22.860Z,4.65
2022-11-25T05:39:51.763Z,1.65
2022-11-25T05:42:19.061Z,1.52
2022-11-25T05:44:46.486Z,1.65
2022-11-25T05:47:13.726Z,2.55
2022-11-25T05:49:40.972Z,2.92
2022-11-25T05:52:08.211Z,3.45
2022-11-25T05:54:35.584Z,3.47
2022-11-25T05:57:03.165Z,2.85
2022-11-25T05:59:30.500Z,4.25
2022-11-25T06:01:57.786Z,2.35
2022-11-25T06:04:25.022Z,2.63
2022-11-25T06:06:52.381Z,2.22
2022-11-25T06:09:19.652Z,3.88
2022-11-25T06:11:46.861Z,2.70
2022-11-25T06:14:14.952Z,2.50
2022-11-25T06:16:43.001Z,2.50
2022-11-25T06:19:10.264Z,1.95
2022-11-25T06:21:37.612Z,3.03
2022-11-25T06:24:05.017Z,1.70
2022-11-25T06:26:32.291Z,2.63
2022-11-25T06:28:59.611Z,2.38
2022-11-25T06:31:27.552Z,4.88
2022-11-25T06:33:56.068Z,2.97
2022-11-25T06:36:23.547Z,2.63
2022-11-25T06:38:53.423Z,3.13
2022-11-25T06:41:22.099Z,3.63
2022-11-25T06:43:49.421Z,2.67
2022-11-25T06:46:24.551Z,4.70
2022-11-25T06:48:53.593Z,1.52
2022-11-25T06:51:20.865Z,1.52
2022-11-25T06:53:48.284Z,3.63
2022-11-25T06:56:15.470Z,2.25
2022-11-25T06:58:43.712Z,3.50
2022-11-25T07:01:26.152Z,3.05
2022-11-25T07:04:03.252Z,3.10
2022-11-25T07:06:31.790Z,1.20
2022-11-25T07:08:59.437Z,2.92
2022-11-25T07:11:28.219Z,3.85
2022-11-25T07:13:58.087Z,1.23
2022-11-25T07:16:26.188Z,2.08
2022-11-25T07:18:53.763Z,2.75
2022-11-25T07:21:23.967Z,2.38
2022-11-25T07:23:52.221Z,3.65
2022-11-25T07:26:31.197Z,4.07
2022-11-25T07:29:04.489Z,2.97
2022-11-25T07:31:35.181Z,3.97
2022-11-25T07:34:09.642Z,4.28
2022-11-25T07:36:37.598Z,5.20
2022-11-25T07:39:28.015Z,6.22
2022-11-25T07:41:55.356Z,5.25
2022-11-25T07:44:22.830Z,5.63
2022-11-25T07:46:51.150Z,3.13
2022-11-25T07:49:26.800Z,4.93
2022-11-25T07:52:04.384Z,3.13
2022-11-25T07:54:33.175Z,4.68
2022-11-25T07:57:00.491Z,3.95
2022-11-25T07:59:27.750Z,3.90
2022-11-25T08:01:56.350Z,3.42
2022-11-25T08:04:24.314Z,6.45
2022-11-25T08:06:52.852Z,3.17
2022-11-25T08:09:23.584Z,3.92
2022-11-25T08:11:51.535Z,5.88
2022-11-25T08:14:19.375Z,3.60
2022-11-25T08:16:47.333Z,5.38
2022-11-25T08:19:17.286Z,4.22
2022-11-25T08:21:44.686Z,2.30
2022-11-25T08:24:20.863Z,5.43
2022-11-25T08:26:49.086Z,1.52
2022-11-25T08:29:18.718Z,2.13
2022-11-25T08:31:46.378Z,3.80
2022-11-25T08:34:22.392Z,1.83
2022-11-25T08:36:50.302Z,5.18
2022-11-25T08:39:50.530Z,3.17
2022-11-25T08:42:07.960Z,2.08
2022-11-25T08:44:35.882Z,3.45
2022-11-25T08:47:03.344Z,2.70
2022-11-25T08:49:32.776Z,3.55
2022-11-25T08:52:02.110Z,1.50
2022-11-25T08:54:29.434Z,3.38
2022-11-25T08:56:56.734Z,4.82
2022-11-25T08:59:25.220Z,2.67
2022-11-25T09:01:52.935Z,2.33
2022-11-25T09:04:20.315Z,1.60
2022-11-25T09:06:47.585Z,2.92
2022-11-25T09:09:14.986Z,4.10
2022-11-25T09:11:42.608Z,2.80
2022-11-25T09:14:09.933Z,1.95
2022-11-25T09:16:37.362Z,2.42
2022-11-25T09:19:04.699Z,3.03
2022-11-25T09:21:32.002Z,3.40
2022-11-25T09:23:59.327Z,4.32
2022-11-25T09:26:29.096Z,3.25
2022-11-25T09:28:57.104Z,2.15
2022-11-25T09:31:24.690Z,4.68
2022-11-25T09:33:52.465Z,2.90
2022-11-25T09:36:20.463Z,1.88
2022-11-25T09:38:48.193Z,3.60
2022-11-25T09:42:11.966Z,3.67
2022-11-25T09:45:31.360Z,4.60
2022-11-25T09:48:36.565Z,2.28
2022-11-25T09:51:09.590Z,3.55
2022-11-25T09:53:56.604Z,7.53
2022-11-25T09:56:32.861Z,6.65
2022-11-25T09:59:30.377Z,8.30
2022-11-25T10:02:10.206Z,8.07
2022-11-25T10:04:47.087Z,5.43
2022-11-25T10:07:28.784Z,5.68
2022-11-25T10:09:59.464Z,8.20
2022-11-25T10:12:31.129Z,4.07
2022-11-25T10:15:23.501Z,3.15
2022-11-25T10:17:54.143Z,3.33
2022-11-25T10:20:23.009Z,3.60
2022-11-25T10:23:08.881Z,5.80
2022-11-25T10:25:51.481Z,4.78
2022-11-25T10:28:25.145Z,6.57
2022-11-25T10:31:04.637Z,3.50
2022-11-25T10:33:37.803Z,2.85
2022-11-25T10:36:14.282Z,3.53
2022-11-25T10:38:59.755Z,3.67
2022-11-25T10:41:30.946Z,3.22
2022-11-25T10:43:58.667Z,4.38
2022-11-25T10:47:11.198Z,4.13
2022-11-25T10:49:47.208Z,6.57
2022-11-25T10:52:15.214Z,6.10
2022-11-25T10:54:55.168Z,5.22
2022-11-25T10:57:28.937Z,2.28
2022-11-25T11:00:00.484Z,5.00
2022-11-25T11:02:29.327Z,3.92
2022-11-25T11:05:03.850Z,3.45
2022-11-25T11:07:38.018Z,5.65
2022-11-25T11:10:28.411Z,3.58
2022-11-25T11:13:00.292Z,3.25
2022-11-25T11:15:48.198Z,5.57
2022-11-25T11:18:39.831Z,9.50
2022-11-25T11:21:21.540Z,9.07
2022-11-25T11:23:54.446Z,4.80
2022-11-25T11:26:29.186Z,3.90
2022-11-25T11:29:17.434Z,11.05
2022-11-25T11:31:56.701Z,7.43
2022-11-25T11:34:23.924Z,10.32
2022-11-25T11:36:59.701Z,3.97
2022-11-25T11:39:45.789Z,5.45
2022-11-25T11:42:28.731Z,4.13
2022-11-25T11:45:23.911Z,10.70
2022-11-25T11:48:20.760Z,5.60
2022-11-25T11:51:07.828Z,3.38
2022-11-25T11:53:59.446Z,6.55
2022-11-25T11:56:36.128Z,5.57
2022-11-25T11:59:23.280Z,4.10
2022-11-25T12:02:12.995Z,4.22
2022-11-25T12:05:07.232Z,12.73
2022-11-25T12:07:45.151Z,5.85
2022-11-25T12:10:15.476Z,6.97
2022-11-25T12:13:00.350Z,2.95
2022-11-25T12:15:57.879Z,4.35
2022-11-25T12:18:38.944Z,2.85
2022-11-25T12:21:13.445Z,4.22
2022-11-25T12:24:04.137Z,2.72
2022-11-25T12:26:55.833Z,3.88
2022-11-25T12:29:45.053Z,2.33
2022-11-25T12:32:53.809Z,4.53
2022-11-25T12:35:51.552Z,5.80
2022-11-25T12:38:48.152Z,3.35
2022-11-25T12:41:36.000Z,5.80
2022-11-25T12:44:21.377Z,4.18
2022-11-25T12:46:51.048Z,5.28
2022-11-25T12:49:23.026Z,4.00
2022-11-25T12:52:17.632Z,8.57
2022-11-25T12:55:07.496Z,4.40
2022-11-25T12:57:54.440Z,6.78
2022-11-25T13:00:44.293Z,10.77
2022-11-25T13:03:46.006Z,5.97
2022-11-25T13:06:43.646Z,7.70
2022-11-25T13:09:23.019Z,4.93
2022-11-25T13:12:15.000Z,6.53
2022-11-25T13:14:51.584Z,12.90
2022-11-25T13:17:20.039Z,7.25
2022-11-25T13:19:47.593Z,5.88
2022-11-25T13:22:29.765Z,5.85
2022-11-25T13:24:58.479Z,9.18
2022-11-25T13:27:36.053Z,7.57
2022-11-25T13:30:04.377Z,9.05
2022-11-25T13:32:37.784Z,10.23
2022-11-25T13:35:43.243Z,4.47
2022-11-25T13:38:29.120Z,7.13
2022-11-25T13:41:36.566Z,5.75
2022-11-25T13:44:21.330Z,10.10
2022-11-25T13:46:52.351Z,11.23
2022-11-25T13:49:43.462Z,8.60
2022-11-25T13:52:13.599Z,9.73
2022-11-25T13:54:55.784Z,11.98
2022-11-25T13:57:30.502Z,5.65
2022-11-25T14:02:29.445Z,5.70
2022-11-25T14:05:05.387Z,5.53
2022-11-25T14:08:07.731Z,5.78
2022-11-25T14:11:12.651Z,6.72
2022-11-25T14:14:05.766Z,6.00
2022-11-25T14:16:43.436Z,4.45
2022-11-25T14:19:50.761Z,6.63
2022-11-25T14:23:03.146Z,5.45
2022-11-25T14:25:44.306Z,4.78
2022-11-25T14:28:54.999Z,5.05
2022-11-25T14:31:31.257Z,3.42
2022-11-25T14:34:04.680Z,4.65
2022-11-25T14:36:38.242Z,7.55
2022-11-25T14:39:27.836Z,6.00
2022-11-25T14:42:02.380Z,5.07
2022-11-25T14:44:39.186Z,7.72
2022-11-25T14:47:06.521Z,5.07
2022-11-25T14:50:11.846Z,4.28
2022-11-25T14:52:40.546Z,8.73
2022-11-25T14:55:08.553Z,6.15
2022-11-25T14:57:39.886Z,4.97
2022-11-25T15:00:12.993Z,7.35
2022-11-25T15:02:51.521Z,9.07
2022-11-25T15:05:22.253Z,8.07
2022-11-25T15:08:07.699Z,7.78
2022-11-25T15:10:56.075Z,8.52
2022-11-25T15:13:44.900Z,11.85
2022-11-25T15:16:18.957Z,11.85
2022-11-25T15:18:58.028Z,10.52
2022-11-25T15:21:31.516Z,12.98
2022-11-25T15:23:59.069Z,12.57
2022-11-25T15:26:29.362Z,13.95
2022-11-25T15:29:03.015Z,14.38
2022-11-25T15:31:33.129Z,15.15
2022-11-25T15:34:03.143Z,14.35
2022-11-25T15:36:30.713Z,14.45
2022-11-25T15:39:13.972Z,15.20
2022-11-25T15:41:43.299Z,15.30
2022-11-25T15:44:21.059Z,15.13
2022-11-25T15:47:07.178Z,15.27
2022-11-25T15:49:35.793Z,13.85
2022-11-25T15:52:15.237Z,16.85
2022-11-25T15:54:46.040Z,16.00
2022-11-25T15:57:27.054Z,16.13
2022-11-25T15:59:54.270Z,18.73
2022-11-25T16:02:42.778Z,15.45
2022-11-25T16:05:13.499Z,13.80
2022-11-25T16:07:54.951Z,14.40
2022-11-25T16:10:41.728Z,16.50
2022-11-25T16:13:22.019Z,16.30
2022-11-25T16:15:54.938Z,14.07
2022-11-25T16:18:45.443Z,14.85
2022-11-25T16:21:23.971Z,14.85
2022-11-25T16:24:19.348Z,16.13
2022-11-25T16:29:25.990Z,14.65
2022-11-25T16:31:53.368Z,14.65
2022-11-25T16:34:24.118Z,13.63
2022-11-25T16:36:51.375Z,14.65
2022-11-25T16:39:18.935Z,14.80
2022-11-25T16:41:56.447Z,12.95
2022-11-25T16:44:26.137Z,15.68
2022-11-25T16:46:55.621Z,13.60
2022-11-25T16:49:23.142Z,13.82
2022-11-25T16:51:51.329Z,11.85
2022-11-25T16:54:23.164Z,12.48
2022-11-25T16:56:53.573Z,15.80
2022-11-25T16:59:31.924Z,16.08
2022-11-25T17:02:00.649Z,14.18
2022-11-25T17:04:28.367Z,16.60
2022-11-25T17:09:46.646Z,19.50
2022-11-25T17:12:29.463Z,19.63
2022-11-25T17:14:59.567Z,19.25
2022-11-25T17:17:27.994Z,21.20
2022-11-25T17:19:55.476Z,19.40
2022-11-25T17:22:26.708Z,20.23
2022-11-25T17:24:54.325Z,21.02
2022-11-25T17:27:30.868Z,20.15
2022-11-25T17:30:00.541Z,24.52
2022-11-25T17:32:28.321Z,22.38
2022-11-25T17:34:55.640Z,20.70
2022-11-25T17:37:24.589Z,25.77
2022-11-25T17:39:53.527Z,22.33
2022-11-25T17:42:30.720Z,21.52
2022-11-25T17:44:58.368Z,23.02
2022-11-25T17:47:25.751Z,22.33
2022-11-25T17:49:53.303Z,21.05
2022-11-25T17:52:20.679Z,20.88
2022-11-25T17:54:47.976Z,20.33
2022-11-25T17:57:21.576Z,22.63
2022-11-25T17:59:49.132Z,20.10
2022-11-25T18:02:19.354Z,20.90
2022-11-25T18:04:46.960Z,23.88
2022-11-25T18:07:14.387Z,19.27
2022-11-25T18:09:41.840Z,20.88
2022-11-25T18:12:19.788Z,23.00
2022-11-25T18:14:47.369Z,20.63
2022-11-25T18:17:18.757Z,19.30
2022-11-25T18:19:52.952Z,19.52
2022-11-25T18:22:23.635Z,24.42
2022-11-25T18:24:51.037Z,22.50
2022-11-25T18:27:24.991Z,24.15
2022-11-25T18:29:53.115Z,22.63
2022-11-25T18:32:21.169Z,19.42
2022-11-25T18:34:48.505Z,18.08
2022-11-25T18:37:16.124Z,18.15
2022-11-25T18:39:43.513Z,22.35
2022-11-25T18:42:23.917Z,24.67
2022-11-25T18:44:51.820Z,23.77
2022-11-25T18:47:19.097Z,16.83
2022-11-25T18:49:48.777Z,18.27
2022-11-25T18:52:19.660Z,22.30
2022-11-25T18:54:48.041Z,21.05
2022-11-25T18:57:15.814Z,22.10
2022-11-25T18:59:44.518Z,19.92
2022-11-25T19:02:17.851Z,17.50
2022-11-25T19:04:45.323Z,20.60
2022-11-25T19:07:12.782Z,17.08
2022-11-25T19:09:40.125Z,18.52
2022-11-25T19:12:12.923Z,23.30
2022-11-25T19:14:42.168Z,17.85
2022-11-25T19:17:20.051Z,17.15
2022-11-25T19:19:47.866Z,17.27
2022-11-25T19:22:16.308Z,19.63
2022-11-25T19:24:43.558Z,20.02
2022-11-25T19:27:21.080Z,16.70
2022-11-25T19:29:48.553Z,18.02
2022-11-25T19:32:25.934Z,17.05
2022-11-25T19:35:01.196Z,18.02
2022-11-25T19:37:30.257Z,16.15
2022-11-25T19:39:57.901Z,17.45
2022-11-25T19:42:25.814Z,16.05
2022-11-25T19:44:53.165Z,20.40
2022-11-25T19:47:26.547Z,16.20
2022-11-25T19:49:57.756Z,17.08
2022-11-25T19:52:34.919Z,14.77
2022-11-25T19:55:10.883Z,15.60
2022-11-25T19:57:38.191Z,15.63
2022-11-25T20:00:06.413Z,14.27
2022-11-25T20:02:33.996Z,15.35
2022-11-25T20:05:01.420Z,15.57
2022-11-25T20:07:31.048Z,15.20
2022-11-25T20:10:13.955Z,15.63
2022-11-25T20:12:41.431Z,14.50
2022-11-25T20:15:09.510Z,14.15
2022-11-25T20:17:39.119Z,13.43
2022-11-25T20:20:18.310Z,15.45
2022-11-25T20:23:00.032Z,14.00
2022-11-25T20:25:28.369Z,14.70
2022-11-25T20:27:56.206Z,17.60
2022-11-25T20:30:28.739Z,14.25
2022-11-25T20:32:56.464Z,15.32
2022-11-25T20:35:25.826Z,15.23
2022-11-25T20:38:00.570Z,15.35
2022-11-25T20:43:01.051Z,17.80
2022-11-25T20:45:28.462Z,16.55
2022-11-25T20:47:55.954Z,19.10
2022-11-25T20:50:23.601Z,17.50
2022-11-25T20:52:50.919Z,17.38
2022-11-25T20:55:24.837Z,17.30
2022-11-25T20:57:52.625Z,16.40
2022-11-25T21:00:24.272Z,17.67
2022-11-25T21:02:52.502Z,20.67
2022-11-25T21:05:20.138Z,17.42
2022-11-25T21:07:49.808Z,21.15
2022-11-25T21:10:24.999Z,17.98
2022-11-25T21:12:52.906Z,20.52
2022-11-25T21:15:23.946Z,15.98
2022-11-25T21:17:51.683Z,18.65
2022-11-25T21:20:19.814Z,19.92
2022-11-25T21:22:51.789Z,13.98
2022-11-25T21:25:22.251Z,15.30
2022-11-25T21:27:52.028Z,14.43
2022-11-25T21:30:20.810Z,15.48
2022-11-25T21:32:48.640Z,15.80
2022-11-25T21:35:16.025Z,21.73
2022-11-25T21:37:44.552Z,17.98
2022-11-25T21:40:33.068Z,14.63
2022-11-25T21:43:01.163Z,14.57
2022-11-25T21:45:28.560Z,14.88
2022-11-25T21:47:55.898Z,16.88
2022-11-25T21:50:23.652Z,17.90
2022-11-25T21:52:50.944Z,13.70
2022-11-25T21:55:18.268Z,17.08
2022-11-25T21:57:45.854Z,13.77
2022-11-25T22:00:24.634Z,18.75
2022-11-25T22:02:52.744Z,19.02
2022-11-25T22:05:23.608Z,16.85
2022-11-25T22:07:51.097Z,14.25
2022-11-25T22:10:19.049Z,14.82
2022-11-25T22:12:47.565Z,17.90
2022-11-25T22:15:21.150Z,17.17
2022-11-25T22:17:49.874Z,15.25
2022-11-25T22:20:36.200Z,12.77
2022-11-25T22:23:24.839Z,14.43
2022-11-25T22:25:53.703Z,15.07
2022-11-25T22:28:27.670Z,13.93
2022-11-25T22:30:59.926Z,15.90
2022-11-25T22:33:34.567Z,16.65
2022-11-25T22:38:30.319Z,15.55
2022-11-25T22:41:01.545Z,14.35
2022-11-25T22:43:35.507Z,15.27
2022-11-25T22:46:04.292Z,13.45
2022-11-25T22:48:37.544Z,12.52
2022-11-25T22:51:05.849Z,13.35
2022-11-25T22:53:33.132Z,15.43
2022-11-25T22:56:00.385Z,14.25
2022-11-25T22:58:28.163Z,14.35
2022-11-25T23:00:57.243Z,11.85
2022-11-25T23:03:30.047Z,11.30
2022-11-25T23:05:57.823Z,10.68
2022-11-25T23:08:31.528Z,14.15
2022-11-25T23:10:58.854Z,13.80
2022-11-25T23:13:26.375Z,13.48
2022-11-25T23:15:58.312Z,12.23
2022-11-25T23:18:32.911Z,16.10
2022-11-25T23:21:05.276Z,11.50
2022-11-25T23:23:32.571Z,11.10
2022-11-25T23:25:59.922Z,12.40
2022-11-25T23:28:27.171Z,11.77
2022-11-25T23:30:56.959Z,12.73
2022-11-25T23:33:46.354Z,11.00
2022-11-25T23:36:23.356Z,12.93
2022-11-25T23:38:57.958Z,13.60
2022-11-25T23:41:26.418Z,12.07
2022-11-25T23:43:54.158Z,10.80
2022-11-25T23:46:24.557Z,11.40
2022-11-25T23:48:59.527Z,15.32
2022-11-25T23:51:28.787Z,12.48
2022-11-25T23:53:57.382Z,9.65
2022-11-25T23:56:26.947Z,9.85
2022-11-25T23:58:54.188Z,9.95
